Time;durP1;ratioP1;P1;durP2;ratioP2;P2;SDS_P1;SDS_P2;PMS_P1;PMS_P2;Temp;Humidity;BMP_temperature;BMP_pressure;BME280_temperature;BME280_humidity;BME280_pressure;Samples;Min_cycle;Max_cycle;Signal;HPM_P1;HPM_P2
2021/09/14 00:01:09;;;;;;;1.87;1.77;;;;;;;21.14;72.67;100328.13;;;;-61
2021/09/14 00:04:09;;;;;;;2.10;1.95;;;;;;;21.13;72.75;100321.47;;;;-61
2021/09/14 00:07:09;;;;;;;2.79;2.01;;;;;;;21.14;72.75;100321.38;;;;-61
2021/09/14 00:10:09;;;;;;;2.35;2.05;;;;;;;21.13;72.72;100319.59;;;;-61
2021/09/14 00:13:09;;;;;;;2.14;1.94;;;;;;;21.12;72.68;100309.23;;;;-49
2021/09/14 00:16:09;;;;;;;2.22;2.04;;;;;;;21.13;72.68;100305.91;;;;-49
2021/09/14 00:19:09;;;;;;;2.63;2.01;;;;;;;21.12;72.73;100305.00;;;;-50
2021/09/14 00:22:09;;;;;;;2.34;1.95;;;;;;;21.12;72.75;100301.09;;;;-49
2021/09/14 00:25:09;;;;;;;2.37;2.17;;;;;;;21.12;72.72;100302.39;;;;-50
2021/09/14 00:28:09;;;;;;;2.28;2.01;;;;;;;21.11;72.68;100299.23;;;;-49
2021/09/14 00:31:09;;;;;;;2.26;2.06;;;;;;;21.11;72.73;100302.58;;;;-50
2021/09/14 00:34:09;;;;;;;2.51;1.99;;;;;;;21.09;72.78;100299.48;;;;-49
2021/09/14 00:37:09;;;;;;;2.28;1.91;;;;;;;21.09;72.72;100305.34;;;;-49
2021/09/14 00:40:09;;;;;;;1.98;1.83;;;;;;;21.10;72.74;100304.44;;;;-50
2021/09/14 00:43:09;;;;;;;2.07;1.92;;;;;;;21.09;72.69;100307.87;;;;-51
2021/09/14 00:46:09;;;;;;;2.24;2.04;;;;;;;21.08;72.69;100297.94;;;;-49
2021/09/14 00:49:09;;;;;;;2.41;2.21;;;;;;;21.08;72.73;100294.69;;;;-49
2021/09/14 00:52:09;;;;;;;2.18;1.98;;;;;;;21.08;72.76;100292.95;;;;-51
2021/09/14 00:55:09;;;;;;;2.17;2.00;;;;;;;21.08;72.79;100290.02;;;;-50
2021/09/14 00:58:09;;;;;;;2.18;1.98;;;;;;;21.07;72.76;100288.80;;;;-50
2021/09/14 01:01:09;;;;;;;1.85;1.75;;;;;;;21.07;72.79;100284.25;;;;-51
2021/09/14 01:04:09;;;;;;;2.20;2.00;;;;;;;21.07;72.70;100283.36;;;;-50
2021/09/14 01:07:09;;;;;;;2.21;2.01;;;;;;;21.06;72.70;100278.88;;;;-50
2021/09/14 01:10:09;;;;;;;2.39;1.92;;;;;;;21.06;72.79;100279.75;;;;-49
2021/09/14 01:13:09;;;;;;;2.19;2.00;;;;;;;21.07;72.76;100282.87;;;;-50
2021/09/14 01:16:11;;;;;;;2.21;2.01;;;;;;;21.05;72.75;100287.11;;;;-49
2021/09/14 01:19:09;;;;;;;2.01;1.80;;;;;;;21.05;72.73;100287.02;;;;-49
2021/09/14 01:22:09;;;;;;;2.22;2.03;;;;;;;21.05;72.73;100282.13;;;;-49
2021/09/14 01:25:09;;;;;;;2.04;1.94;;;;;;;21.05;72.75;100281.56;;;;-49
2021/09/14 01:28:09;;;;;;;2.49;1.97;;;;;;;21.05;72.76;100278.88;;;;-49
2021/09/14 01:31:09;;;;;;;2.06;1.96;;;;;;;21.04;72.69;100275.37;;;;-49
2021/09/14 01:34:09;;;;;;;2.10;1.98;;;;;;;21.04;72.72;100271.72;;;;-50
2021/09/14 01:37:09;;;;;;;2.37;2.10;;;;;;;21.03;72.78;100274.16;;;;-49
2021/09/14 01:40:09;;;;;;;2.08;1.98;;;;;;;21.04;72.81;100271.13;;;;-49
2021/09/14 01:43:09;;;;;;;2.17;2.00;;;;;;;21.03;72.78;100269.11;;;;-50
2021/09/14 01:46:09;;;;;;;2.65;2.05;;;;;;;21.03;72.75;100276.53;;;;-50
2021/09/14 01:49:09;;;;;;;2.32;2.12;;;;;;;21.02;72.75;100279.88;;;;-49
2021/09/14 01:52:10;;;;;;;2.25;2.05;;;;;;;21.02;72.73;100277.66;;;;-49
2021/09/14 01:55:10;;;;;;;2.01;1.91;;;;;;;21.02;72.73;100267.95;;;;-49
2021/09/14 02:23:40;;;;;;;2.32;2.12;;;;;;;21.00;72.72;100278.58;;;;-50
2021/09/14 02:24:25;;;;;;;2.05;1.85;;;;;;;20.99;72.79;100278.81;;;;-62
2021/09/14 02:38:32;;;;;;;2.66;2.11;;;;;;;20.99;72.75;100275.15;;;;-61
2021/09/14 02:41:20;;;;;;;2.69;2.13;;;;;;;20.98;72.75;100271.25;;;;-61
2021/09/14 02:44:46;;;;;;;1.90;1.80;;;;;;;20.98;72.74;100270.73;;;;-61
2021/09/14 03:01:09;;;;;;;2.76;2.13;;;;;;;20.97;72.69;100271.48;;;;-52
2021/09/14 03:04:13;;;;;;;2.31;2.11;;;;;;;20.96;72.68;100276.22;;;;-53
2021/09/14 03:07:09;;;;;;;2.41;2.15;;;;;;;20.95;72.75;100280.36;;;;-53
2021/09/14 03:10:09;;;;;;;2.25;2.05;;;;;;;20.95;72.70;100279.63;;;;-52
2021/09/14 03:13:09;;;;;;;2.01;1.91;;;;;;;20.95;72.75;100279.06;;;;-52
2021/09/14 03:16:09;;;;;;;2.22;2.02;;;;;;;20.96;72.74;100283.61;;;;-53
2021/09/14 03:19:09;;;;;;;2.25;2.05;;;;;;;20.95;72.68;100282.17;;;;-53
2021/09/14 03:22:09;;;;;;;2.31;2.11;;;;;;;20.94;72.69;100279.73;;;;-53
2021/09/14 03:25:10;;;;;;;2.12;2.02;;;;;;;20.94;72.73;100280.87;;;;-53
2021/09/14 03:28:11;;;;;;;2.46;2.10;;;;;;;20.94;72.73;100281.66;;;;-53
2021/09/14 03:31:10;;;;;;;2.12;2.01;;;;;;;20.94;72.67;100280.30;;;;-53
2021/09/14 03:34:09;;;;;;;2.49;2.27;;;;;;;20.94;72.71;100282.31;;;;-53
2021/09/14 03:37:09;;;;;;;2.15;2.05;;;;;;;20.93;72.66;100274.83;;;;-53
2021/09/14 03:40:09;;;;;;;2.35;2.09;;;;;;;20.92;72.67;100271.02;;;;-53
2021/09/14 03:43:09;;;;;;;2.27;2.09;;;;;;;20.93;72.64;100270.43;;;;-53
2021/09/14 03:46:09;;;;;;;2.52;2.32;;;;;;;20.92;72.67;100267.60;;;;-53
2021/09/14 03:49:09;;;;;;;2.30;2.10;;;;;;;20.92;72.68;100269.71;;;;-53
2021/09/14 03:52:09;;;;;;;2.43;2.23;;;;;;;20.92;72.67;100269.28;;;;-53
2021/09/14 03:55:09;;;;;;;2.09;1.99;;;;;;;20.92;72.71;100267.50;;;;-53
2021/09/14 03:58:09;;;;;;;2.31;2.11;;;;;;;20.92;72.65;100271.59;;;;-53
2021/09/14 04:01:09;;;;;;;2.19;2.07;;;;;;;20.91;72.66;100272.88;;;;-53
2021/09/14 04:04:16;;;;;;;2.15;2.02;;;;;;;20.91;72.65;100278.50;;;;-53
2021/09/14 04:07:23;;;;;;;2.41;2.21;;;;;;;20.91;72.66;100274.84;;;;-53
2021/09/14 04:10:09;;;;;;;2.49;2.29;;;;;;;20.91;72.74;100275.90;;;;-53
2021/09/14 04:13:09;;;;;;;2.29;2.09;;;;;;;20.91;72.67;100278.26;;;;-53
2021/09/14 04:16:09;;;;;;;2.29;2.09;;;;;;;20.91;72.67;100271.75;;;;-53
2021/09/14 04:19:09;;;;;;;2.50;2.30;;;;;;;20.91;72.71;100274.44;;;;-53
2021/09/14 04:22:09;;;;;;;2.46;2.25;;;;;;;20.90;72.72;100271.83;;;;-53
2021/09/14 04:25:09;;;;;;;2.37;2.17;;;;;;;20.90;72.67;100270.05;;;;-52
2021/09/14 04:28:09;;;;;;;2.39;2.19;;;;;;;20.89;72.67;100270.44;;;;-52
2021/09/14 04:31:09;;;;;;;2.39;2.19;;;;;;;20.89;72.68;100263.02;;;;-52
2021/09/14 04:34:09;;;;;;;2.41;2.21;;;;;;;20.89;72.68;100263.44;;;;-52
2021/09/14 04:37:09;;;;;;;2.30;2.10;;;;;;;20.89;72.62;100265.88;;;;-52
2021/09/14 04:40:09;;;;;;;2.39;2.19;;;;;;;20.89;72.68;100268.16;;;;-51
2021/09/14 04:43:09;;;;;;;2.20;2.10;;;;;;;20.88;72.70;100267.45;;;;-52
2021/09/14 04:46:09;;;;;;;2.39;2.19;;;;;;;20.88;72.67;100270.05;;;;-51
2021/09/14 04:49:09;;;;;;;2.31;2.11;;;;;;;20.88;72.70;100273.31;;;;-61
2021/09/14 04:52:09;;;;;;;2.52;2.20;;;;;;;20.87;72.70;100271.83;;;;-61
2021/09/14 04:55:09;;;;;;;2.13;2.03;;;;;;;20.87;72.70;100272.23;;;;-61
2021/09/14 04:58:09;;;;;;;2.20;2.09;;;;;;;20.87;72.69;100269.38;;;;-61
2021/09/14 05:01:09;;;;;;;2.33;2.13;;;;;;;20.88;72.73;100270.95;;;;-49
2021/09/14 05:04:09;;;;;;;2.49;2.29;;;;;;;20.87;72.74;100266.13;;;;-50
2021/09/14 05:07:10;;;;;;;2.34;2.14;;;;;;;20.87;72.67;100261.41;;;;-49
2021/09/14 05:10:09;;;;;;;2.35;2.15;;;;;;;20.87;72.70;100260.50;;;;-49
2021/09/14 05:13:09;;;;;;;2.37;2.17;;;;;;;20.87;72.64;100262.62;;;;-49
2021/09/14 05:16:09;;;;;;;2.40;2.20;;;;;;;20.87;72.69;100268.73;;;;-49
2021/09/14 05:19:10;;;;;;;2.11;1.95;;;;;;;20.88;72.65;100278.28;;;;-49
2021/09/14 05:22:12;;;;;;;2.69;2.17;;;;;;;20.86;72.67;100277.22;;;;-49
2021/09/14 05:25:09;;;;;;;2.40;2.20;;;;;;;20.86;72.74;100270.55;;;;-52
2021/09/14 05:28:11;;;;;;;2.38;2.21;;;;;;;20.86;72.73;100277.63;;;;-52
2021/09/14 05:31:09;;;;;;;2.25;2.05;;;;;;;20.85;72.81;100273.88;;;;-51
2021/09/14 05:34:09;;;;;;;2.50;2.30;;;;;;;20.84;72.71;100270.63;;;;-51
2021/09/14 05:37:09;;;;;;;2.35;2.15;;;;;;;20.85;72.79;100263.36;;;;-51
2021/09/14 05:40:09;;;;;;;2.20;2.10;;;;;;;20.85;72.68;100264.66;;;;-52
2021/09/14 05:43:09;;;;;;;2.29;2.09;;;;;;;20.85;72.75;100270.70;;;;-62
2021/09/14 05:46:09;;;;;;;2.20;2.10;;;;;;;20.86;72.67;100276.91;;;;-61
2021/09/14 05:49:09;;;;;;;2.20;2.09;;;;;;;20.84;72.73;100278.11;;;;-61
2021/09/14 05:52:09;;;;;;;2.89;1.94;;;;;;;20.85;72.71;100268.09;;;;-49
2021/09/14 05:55:09;;;;;;;2.39;2.20;;;;;;;20.84;72.75;100271.77;;;;-61
2021/09/14 05:58:09;;;;;;;2.30;2.10;;;;;;;20.85;72.76;100276.89;;;;-62
2021/09/14 06:01:10;;;;;;;2.33;2.17;;;;;;;20.84;72.76;100279.58;;;;-61
2021/09/14 06:04:09;;;;;;;2.27;2.17;;;;;;;20.85;72.65;100290.16;;;;-52
2021/09/14 06:07:09;;;;;;;2.41;2.21;;;;;;;20.85;72.75;100288.45;;;;-52
2021/09/14 06:10:09;;;;;;;2.45;2.25;;;;;;;20.85;72.67;100284.95;;;;-52
2021/09/14 06:13:09;;;;;;;2.23;2.06;;;;;;;20.84;72.73;100289.69;;;;-52
2021/09/14 06:16:09;;;;;;;2.24;2.09;;;;;;;20.83;72.74;100294.06;;;;-52
2021/09/14 06:19:11;;;;;;;2.31;2.11;;;;;;;20.84;72.76;100302.72;;;;-52
2021/09/14 06:22:09;;;;;;;2.20;2.10;;;;;;;20.84;72.71;100306.38;;;;-52
2021/09/14 06:25:09;;;;;;;2.35;2.17;;;;;;;20.84;72.73;100306.06;;;;-51
2021/09/14 06:28:09;;;;;;;2.15;2.05;;;;;;;20.84;72.73;100306.22;;;;-52
2021/09/14 06:31:09;;;;;;;2.28;2.08;;;;;;;20.84;72.73;100307.86;;;;-52
2021/09/14 06:34:09;;;;;;;2.25;2.09;;;;;;;20.83;72.76;100308.82;;;;-52
2021/09/14 06:37:09;;;;;;;2.38;2.18;;;;;;;20.83;72.72;100303.84;;;;-52
2021/09/14 06:40:09;;;;;;;2.30;2.10;;;;;;;20.82;72.71;100309.23;;;;-61
2021/09/14 06:43:09;;;;;;;2.44;2.24;;;;;;;20.83;72.74;100315.91;;;;-61
2021/09/14 06:46:09;;;;;;;2.40;2.20;;;;;;;20.82;72.75;100313.47;;;;-61
2021/09/14 06:49:09;;;;;;;2.29;2.11;;;;;;;20.83;72.76;100308.82;;;;-49
2021/09/14 06:52:09;;;;;;;2.45;2.25;;;;;;;20.82;72.77;100303.22;;;;-49
2021/09/14 06:55:09;;;;;;;2.34;2.17;;;;;;;20.82;72.80;100313.64;;;;-62
2021/09/14 06:58:09;;;;;;;2.24;2.04;;;;;;;20.82;72.75;100318.28;;;;-61
2021/09/14 07:01:09;;;;;;;2.29;2.10;;;;;;;20.82;72.76;100311.36;;;;-52
2021/09/14 07:04:09;;;;;;;2.35;2.15;;;;;;;20.82;72.80;100309.16;;;;-61
2021/09/14 07:07:09;;;;;;;2.28;2.08;;;;;;;20.82;72.76;100311.13;;;;-61
2021/09/14 07:10:09;;;;;;;2.31;2.11;;;;;;;20.82;72.76;100310.30;;;;-61
2021/09/14 07:13:09;;;;;;;2.45;2.25;;;;;;;20.82;72.79;100312.34;;;;-61
2021/09/14 07:16:09;;;;;;;2.21;2.03;;;;;;;20.81;72.82;100313.45;;;;-61
2021/09/14 07:19:09;;;;;;;2.27;2.09;;;;;;;20.82;72.80;100315.92;;;;-62
2021/09/14 07:22:09;;;;;;;2.09;1.99;;;;;;;20.81;72.75;100315.73;;;;-61
2021/09/14 07:25:09;;;;;;;8.25;2.23;;;;;;;20.82;72.82;100311.94;;;;-52
2021/09/14 07:28:09;;;;;;;2.28;2.10;;;;;;;20.83;72.83;100312.72;;;;-58
2021/09/14 07:31:11;;;;;;;2.35;2.15;;;;;;;20.84;72.87;100313.56;;;;-63
2021/09/14 07:34:09;;;;;;;2.59;2.29;;;;;;;20.86;72.89;100316.66;;;;-58
2021/09/14 07:37:09;;;;;;;3.07;2.25;;;;;;;20.87;72.90;100314.27;;;;-58
2021/09/14 07:40:09;;;;;;;3.31;2.29;;;;;;;20.88;72.96;100317.37;;;;-55
2021/09/14 07:43:09;;;;;;;2.57;2.37;;;;;;;20.90;72.92;100314.35;;;;-54
2021/09/14 07:46:10;;;;;;;2.65;2.45;;;;;;;20.90;72.95;100316.40;;;;-62
2021/09/14 07:49:09;;;;;;;2.61;2.30;;;;;;;20.91;72.91;100311.66;;;;-62
2021/09/14 07:52:09;;;;;;;2.71;2.49;;;;;;;20.91;72.95;100308.48;;;;-62
2021/09/14 07:55:09;;;;;;;4.40;2.47;;;;;;;20.91;72.90;100306.20;;;;-63
2021/09/14 07:58:09;;;;;;;3.25;2.60;;;;;;;20.91;72.90;100304.66;;;;-59
2021/09/14 08:01:09;;;;;;;2.69;2.41;;;;;;;20.92;72.83;100314.84;;;;-59
2021/09/14 08:04:09;;;;;;;11.41;2.71;;;;;;;20.92;72.84;100322.89;;;;-51
2021/09/14 08:07:09;;;;;;;4.63;3.38;;;;;;;20.89;72.84;100323.14;;;;-54
2021/09/14 08:10:09;;;;;;;5.03;3.70;;;;;;;20.86;73.04;100328.21;;;;-50
2021/09/14 08:13:09;;;;;;;4.56;3.84;;;;;;;20.85;73.06;100334.88;;;;-51
2021/09/14 08:16:09;;;;;;;5.13;3.87;;;;;;;20.85;73.16;100329.59;;;;-52
2021/09/14 08:19:09;;;;;;;4.97;4.09;;;;;;;20.85;73.28;100329.91;;;;-52
2021/09/14 08:22:09;;;;;;;4.61;4.21;;;;;;;20.84;73.44;100328.87;;;;-54
2021/09/14 08:25:09;;;;;;;4.81;4.38;;;;;;;20.85;73.48;100325.91;;;;-54
2021/09/14 08:28:09;;;;;;;5.56;4.11;;;;;;;20.90;73.42;100327.89;;;;-57
2021/09/14 08:31:09;;;;;;;6.08;4.06;;;;;;;20.93;73.45;100328.27;;;;-58
2021/09/14 08:34:09;;;;;;;7.31;3.95;;;;;;;20.96;73.44;100324.62;;;;-55
2021/09/14 08:37:09;;;;;;;8.80;3.82;;;;;;;20.98;73.35;100320.54;;;;-57
2021/09/14 08:40:09;;;;;;;7.68;3.56;;;;;;;20.99;73.26;100317.09;;;;-56
2021/09/14 08:43:09;;;;;;;6.73;3.78;;;;;;;21.02;73.27;100320.34;;;;-58
2021/09/14 08:46:09;;;;;;;7.67;3.77;;;;;;;21.03;73.24;100317.59;;;;-62
2021/09/14 08:49:09;;;;;;;7.09;3.73;;;;;;;21.03;73.22;100320.03;;;;-61
2021/09/14 08:52:11;;;;;;;6.43;3.50;;;;;;;21.04;73.22;100321.09;;;;-54
2021/09/14 08:55:09;;;;;;;5.71;3.57;;;;;;;21.04;73.14;100316.27;;;;-52
2021/09/14 08:58:13;;;;;;;5.07;3.67;;;;;;;21.03;73.25;100313.75;;;;-52
2021/09/14 09:01:09;;;;;;;5.75;3.55;;;;;;;21.04;73.18;100313.17;;;;-54
2021/09/14 09:04:12;;;;;;;8.53;3.60;;;;;;;21.03;73.19;100313.58;;;;-58
2021/09/14 09:07:09;;;;;;;6.96;3.46;;;;;;;21.03;73.13;100312.28;;;;-56
2021/09/14 09:10:09;;;;;;;3.99;3.57;;;;;;;21.03;73.09;100312.37;;;;-59
2021/09/14 09:13:09;;;;;;;3.89;3.49;;;;;;;21.03;73.07;100313.27;;;;-55
2021/09/14 09:16:09;;;;;;;3.89;3.37;;;;;;;21.03;73.05;100312.62;;;;-55
2021/09/14 09:19:09;;;;;;;4.28;3.26;;;;;;;21.02;73.02;100310.18;;;;-52
2021/09/14 09:22:11;;;;;;;4.93;3.46;;;;;;;21.03;72.99;100312.53;;;;-58
2021/09/14 09:25:09;;;;;;;3.77;3.39;;;;;;;21.03;72.97;100311.23;;;;-58
2021/09/14 09:28:10;;;;;;;4.53;3.25;;;;;;;21.03;72.94;100303.90;;;;-58
2021/09/14 09:31:12;;;;;;;4.24;3.21;;;;;;;21.02;72.96;100299.31;;;;-63
2021/09/14 09:34:09;;;;;;;3.85;3.28;;;;;;;21.03;72.96;100302.34;;;;-62
2021/09/14 09:37:09;;;;;;;4.57;3.13;;;;;;;21.03;72.86;100309.12;;;;-63
2021/09/14 09:40:09;;;;;;;6.38;3.51;;;;;;;21.02;72.86;100306.58;;;;-59
2021/09/14 09:43:09;;;;;;;3.54;3.24;;;;;;;21.02;72.89;100310.23;;;;-56
2021/09/14 09:46:09;;;;;;;4.08;3.09;;;;;;;21.02;72.85;100306.09;;;;-55
2021/09/14 09:49:09;;;;;;;4.49;3.13;;;;;;;21.02;72.79;100303.98;;;;-56
2021/09/14 09:52:09;;;;;;;3.28;2.97;;;;;;;21.03;72.76;100303.48;;;;-55
2021/09/14 09:55:09;;;;;;;4.69;3.16;;;;;;;21.02;72.82;100302.84;;;;-55
2021/09/14 09:58:10;;;;;;;3.36;3.06;;;;;;;21.02;72.79;100308.04;;;;-55
2021/09/14 10:01:09;;;;;;;3.13;2.83;;;;;;;21.02;72.79;100310.56;;;;-63
2021/09/14 10:04:09;;;;;;;3.39;3.09;;;;;;;21.02;72.78;100316.77;;;;-64
2021/09/14 10:07:09;;;;;;;3.45;3.15;;;;;;;21.02;72.82;100313.17;;;;-63
2021/09/14 10:10:09;;;;;;;3.34;3.04;;;;;;;21.01;72.72;100308.21;;;;-55
2021/09/14 10:13:09;;;;;;;3.67;3.13;;;;;;;21.02;72.78;100310.64;;;;-55
2021/09/14 10:16:11;;;;;;;4.52;3.29;;;;;;;21.03;73.01;100311.40;;;;-57
2021/09/14 10:19:09;;;;;;;3.15;2.85;;;;;;;21.05;72.90;100304.22;;;;-50
2021/09/14 10:22:10;;;;;;;4.02;3.15;;;;;;;21.06;73.05;100302.41;;;;-52
2021/09/14 10:25:11;;;;;;;3.54;3.24;;;;;;;21.07;73.08;100296.56;;;;-57
2021/09/14 10:28:09;;;;;;;3.59;3.13;;;;;;;21.08;73.13;100304.30;;;;-51
2021/09/14 10:31:09;;;;;;;3.63;3.15;;;;;;;21.09;73.13;100300.62;;;;-51
2021/09/14 10:34:09;;;;;;;5.27;3.08;;;;;;;21.11;73.17;100299.56;;;;-59
2021/09/14 10:37:09;;;;;;;3.91;3.00;;;;;;;21.12;73.12;100296.28;;;;-64
2021/09/14 10:40:09;;;;;;;5.10;3.03;;;;;;;21.14;73.13;100299.05;;;;-57
2021/09/14 10:43:09;;;;;;;3.32;2.85;;;;;;;21.14;73.14;100289.83;;;;-52
2021/09/14 10:46:09;;;;;;;6.74;2.89;;;;;;;21.16;73.22;100286.09;;;;-53
2021/09/14 10:49:09;;;;;;;3.81;2.84;;;;;;;21.17;73.28;100287.89;;;;-56
2021/09/14 10:52:09;;;;;;;3.22;2.92;;;;;;;21.17;73.20;100288.05;;;;-57
2021/09/14 10:55:09;;;;;;;4.13;2.92;;;;;;;21.19;73.22;100293.02;;;;-52
2021/09/14 10:58:09;;;;;;;3.93;3.19;;;;;;;21.20;73.26;100291.03;;;;-52
2021/09/14 11:01:09;;;;;;;4.07;3.05;;;;;;;21.20;73.20;100292.75;;;;-50
2021/09/14 11:04:09;;;;;;;3.26;2.92;;;;;;;21.22;73.15;100297.65;;;;-55
2021/09/14 11:07:09;;;;;;;3.96;3.01;;;;;;;21.21;73.02;100294.64;;;;-52
2021/09/14 11:10:11;;;;;;;4.16;2.89;;;;;;;21.21;73.12;100292.44;;;;-51
2021/09/14 11:13:09;;;;;;;5.67;2.78;;;;;;;21.21;73.11;100291.06;;;;-51
2021/09/14 11:16:09;;;;;;;5.25;2.80;;;;;;;21.20;73.06;100292.92;;;;-51
2021/09/14 11:19:09;;;;;;;3.45;2.68;;;;;;;21.20;73.10;100291.78;;;;-53
2021/09/14 11:22:09;;;;;;;3.31;2.79;;;;;;;21.19;73.03;100288.13;;;;-53
2021/09/14 11:25:09;;;;;;;4.23;2.95;;;;;;;21.18;72.98;100285.18;;;;-52
2021/09/14 11:28:10;;;;;;;4.11;2.79;;;;;;;21.17;73.00;100283.08;;;;-52
2021/09/14 11:31:11;;;;;;;3.23;2.87;;;;;;;21.17;72.96;100283.64;;;;-52
2021/09/14 11:34:09;;;;;;;4.33;2.94;;;;;;;21.17;72.91;100284.95;;;;-53
2021/09/14 11:37:09;;;;;;;3.63;3.03;;;;;;;21.16;72.88;100278.83;;;;-52
2021/09/14 11:40:09;;;;;;;3.37;2.75;;;;;;;21.16;72.87;100277.52;;;;-59
2021/09/14 11:43:09;;;;;;;3.25;2.90;;;;;;;21.16;72.88;100282.26;;;;-59
2021/09/14 11:46:09;;;;;;;4.37;2.97;;;;;;;21.15;72.81;100282.44;;;;-59
2021/09/14 11:49:09;;;;;;;3.02;2.75;;;;;;;21.15;72.85;100284.87;;;;-59
2021/09/14 11:52:09;;;;;;;3.51;2.69;;;;;;;21.16;72.87;100289.59;;;;-60
2021/09/14 11:55:09;;;;;;;2.71;2.51;;;;;;;21.16;72.78;100287.64;;;;-59
2021/09/14 11:58:09;;;;;;;3.07;2.75;;;;;;;21.15;72.76;100280.55;;;;-59
2021/09/14 12:01:09;;;;;;;3.43;2.71;;;;;;;21.15;72.75;100277.70;;;;-60
2021/09/14 12:04:09;;;;;;;3.35;2.74;;;;;;;21.15;72.79;100277.05;;;;-59
2021/09/14 12:07:09;;;;;;;3.53;2.69;;;;;;;21.15;72.73;100276.16;;;;-51
2021/09/14 12:10:09;;;;;;;2.95;2.65;;;;;;;21.14;72.74;100273.78;;;;-59
2021/09/14 12:13:09;;;;;;;6.01;2.71;;;;;;;21.14;72.77;100269.80;;;;-51
2021/09/14 12:16:10;;;;;;;2.79;2.57;;;;;;;21.14;72.77;100268.66;;;;-53
2021/09/14 12:19:09;;;;;;;3.06;2.77;;;;;;;21.14;72.73;100269.88;;;;-53
2021/09/14 12:22:10;;;;;;;3.21;2.91;;;;;;;21.14;72.68;100267.19;;;;-53
2021/09/14 12:25:09;;;;;;;2.88;2.67;;;;;;;21.13;72.74;100266.97;;;;-54
2021/09/14 12:28:09;;;;;;;3.12;2.57;;;;;;;21.14;72.71;100265.16;;;;-51
2021/09/14 12:31:09;;;;;;;3.40;2.79;;;;;;;21.14;72.62;100262.71;;;;-54
2021/09/14 12:34:10;;;;;;;2.81;2.61;;;;;;;21.13;72.67;100259.62;;;;-51
2021/09/14 12:37:09;;;;;;;3.91;2.82;;;;;;;21.13;72.66;100258.56;;;;-53
2021/09/14 12:40:09;;;;;;;2.98;2.52;;;;;;;21.12;72.75;100255.29;;;;-51
2021/09/14 12:43:09;;;;;;;5.68;2.67;;;;;;;21.13;72.89;100253.61;;;;-51
2021/09/14 12:46:09;;;;;;;3.44;2.80;;;;;;;21.13;72.95;100248.87;;;;-57
2021/09/14 12:49:09;;;;;;;2.96;2.66;;;;;;;21.16;72.84;100242.98;;;;-60
2021/09/14 12:52:09;;;;;;;3.05;2.71;;;;;;;21.17;72.97;100244.03;;;;-62
2021/09/14 12:55:09;;;;;;;3.25;2.76;;;;;;;21.18;72.88;100244.44;;;;-63
2021/09/14 12:58:09;;;;;;;3.74;2.79;;;;;;;21.18;72.92;100243.37;;;;-59
2021/09/14 13:01:09;;;;;;;2.71;2.47;;;;;;;21.19;72.89;100241.59;;;;-61
2021/09/14 13:04:09;;;;;;;5.51;2.74;;;;;;;21.20;72.96;100236.92;;;;-63
2021/09/14 13:07:09;;;;;;;3.61;2.77;;;;;;;21.20;73.03;100235.38;;;;-62
2021/09/14 13:10:12;;;;;;;3.47;2.70;;;;;;;21.22;73.07;100237.73;;;;-49
2021/09/14 13:16:15;;;;;;;3.69;2.71;;;;;;;21.24;73.01;100234.79;;;;-61
2021/09/14 13:19:09;;;;;;;4.11;2.71;;;;;;;21.25;72.99;100234.96;;;;-62
2021/09/14 13:22:09;;;;;;;3.03;2.70;;;;;;;21.26;72.98;100227.45;;;;-53
2021/09/14 13:25:09;;;;;;;3.68;2.62;;;;;;;21.26;72.98;100224.19;;;;-53
2021/09/14 13:28:09;;;;;;;3.21;2.59;;;;;;;21.28;73.01;100224.91;;;;-57
2021/09/14 13:31:10;;;;;;;3.71;2.70;;;;;;;21.30;73.04;100224.17;;;;-60
2021/09/14 13:34:09;;;;;;;2.75;2.54;;;;;;;21.30;73.05;100215.20;;;;-61
2021/09/14 13:37:09;;;;;;;3.43;2.68;;;;;;;21.29;73.02;100209.52;;;;-63
2021/09/14 13:40:09;;;;;;;5.31;2.90;;;;;;;21.30;73.08;100207.86;;;;-58
2021/09/14 13:43:09;;;;;;;3.18;2.66;;;;;;;21.31;72.92;100208.42;;;;-59
2021/09/14 13:46:13;;;;;;;2.81;2.55;;;;;;;21.31;72.90;100212.74;;;;-59
2021/09/14 13:49:09;;;;;;;3.39;2.65;;;;;;;21.30;72.99;100211.77;;;;-58
2021/09/14 13:52:10;;;;;;;3.09;2.69;;;;;;;21.32;72.89;100219.03;;;;-61
2021/09/14 13:55:09;;;;;;;3.26;2.63;;;;;;;21.32;72.83;100218.38;;;;-61
2021/09/14 13:58:09;;;;;;;3.08;2.81;;;;;;;21.33;73.04;100220.08;;;;-59
2021/09/14 14:01:09;;;;;;;4.73;2.90;;;;;;;21.33;72.98;100226.11;;;;-61
2021/09/14 14:04:09;;;;;;;3.19;2.89;;;;;;;21.32;72.92;100226.95;;;;-61
2021/09/14 14:07:09;;;;;;;3.91;2.99;;;;;;;21.31;73.11;100225.89;;;;-60
2021/09/14 14:10:09;;;;;;;3.15;2.80;;;;;;;21.32;73.06;100224.09;;;;-54
2021/09/14 14:13:09;;;;;;;5.39;2.70;;;;;;;21.33;72.97;100215.84;;;;-53
2021/09/14 14:16:09;;;;;;;3.22;2.87;;;;;;;21.33;72.95;100216.59;;;;-56
2021/09/14 14:19:09;;;;;;;4.62;2.84;;;;;;;21.34;72.97;100215.59;;;;-58
2021/09/14 14:22:09;;;;;;;3.73;3.01;;;;;;;21.34;72.89;100217.23;;;;-64
2021/09/14 14:25:09;;;;;;;3.29;2.90;;;;;;;21.35;72.75;100218.05;;;;-51
2021/09/14 14:28:09;;;;;;;3.75;2.79;;;;;;;21.35;72.78;100212.89;;;;-51
2021/09/14 14:31:09;;;;;;;4.56;2.71;;;;;;;21.34;72.79;100217.47;;;;-54
2021/09/14 14:34:09;;;;;;;3.59;2.91;;;;;;;21.35;72.65;100216.80;;;;-54
2021/09/14 14:37:09;;;;;;;3.76;2.67;;;;;;;21.35;72.65;100215.50;;;;-51
2021/09/14 14:40:09;;;;;;;5.84;2.95;;;;;;;21.34;72.64;100219.42;;;;-63
2021/09/14 14:43:09;;;;;;;4.38;2.85;;;;;;;21.34;72.60;100220.09;;;;-63
2021/09/14 14:46:10;;;;;;;4.37;2.81;;;;;;;21.33;72.55;100219.27;;;;-63
2021/09/14 14:49:09;;;;;;;5.37;3.02;;;;;;;21.33;72.58;100215.09;;;;-54
2021/09/14 14:52:09;;;;;;;2.87;2.67;;;;;;;21.33;72.53;100215.34;;;;-52
2021/09/14 14:55:09;;;;;;;4.13;3.05;;;;;;;21.33;72.47;100212.25;;;;-51
2021/09/14 14:58:09;;;;;;;3.80;2.80;;;;;;;21.32;72.50;100210.39;;;;-52
2021/09/14 15:01:09;;;;;;;5.33;2.90;;;;;;;21.32;72.43;100207.28;;;;-63
2021/09/14 15:04:09;;;;;;;3.47;2.95;;;;;;;21.32;72.51;100208.11;;;;-54
2021/09/14 15:07:09;;;;;;;3.62;2.69;;;;;;;21.32;72.45;100206.97;;;;-55
2021/09/14 15:10:09;;;;;;;4.73;3.04;;;;;;;21.31;72.46;100206.66;;;;-57
2021/09/14 15:13:09;;;;;;;3.24;2.93;;;;;;;21.32;72.51;100203.96;;;;-63
2021/09/14 15:16:09;;;;;;;4.37;3.13;;;;;;;21.31;72.48;100200.93;;;;-53
2021/09/14 15:19:09;;;;;;;3.99;2.76;;;;;;;21.30;72.49;100197.03;;;;-52
2021/09/14 15:22:09;;;;;;;3.85;2.84;;;;;;;21.31;72.45;100194.25;;;;-56
2021/09/14 15:25:09;;;;;;;3.12;2.69;;;;;;;21.30;72.45;100197.28;;;;-55
2021/09/14 15:28:09;;;;;;;7.23;2.91;;;;;;;21.31;72.57;100204.84;;;;-63
2021/09/14 15:31:09;;;;;;;2.89;2.63;;;;;;;21.30;72.57;100208.02;;;;-61
2021/09/14 15:34:09;;;;;;;4.61;2.92;;;;;;;21.32;72.61;100208.35;;;;-57
2021/09/14 15:37:10;;;;;;;4.58;2.68;;;;;;;21.33;72.60;100208.66;;;;-56
2021/09/14 15:40:09;;;;;;;3.54;2.79;;;;;;;21.34;72.67;100211.77;;;;-47
2021/09/14 15:43:09;;;;;;;3.43;2.85;;;;;;;21.36;72.73;100211.34;;;;-54
2021/09/14 15:46:11;;;;;;;4.84;2.65;;;;;;;21.36;72.75;100209.14;;;;-53
2021/09/14 15:49:09;;;;;;;10.67;3.11;;;;;;;21.38;72.86;100211.02;;;;-52
2021/09/14 15:52:09;;;;;;;11.19;3.22;;;;;;;21.39;72.76;100211.34;;;;-64
2021/09/14 15:55:09;;;;;;;9.26;2.96;;;;;;;21.41;72.91;100208.77;;;;-59
2021/09/14 15:58:09;;;;;;;7.34;3.08;;;;;;;21.43;73.00;100211.83;;;;-60
2021/09/14 16:01:09;;;;;;;7.81;2.95;;;;;;;21.43;72.96;100208.55;;;;-61
2021/09/14 16:04:10;;;;;;;6.07;2.87;;;;;;;21.44;73.00;100210.59;;;;-61
2021/09/14 16:07:09;;;;;;;9.15;2.73;;;;;;;21.44;72.94;100205.63;;;;-58
2021/09/14 16:10:09;;;;;;;5.07;2.93;;;;;;;21.45;72.90;100205.62;;;;-58
2021/09/14 16:13:09;;;;;;;6.21;3.07;;;;;;;21.46;72.99;100203.59;;;;-56
2021/09/14 16:16:09;;;;;;;3.69;2.87;;;;;;;21.46;72.96;100199.42;;;;-57
2021/09/14 16:19:09;;;;;;;5.83;2.79;;;;;;;21.47;72.90;100198.67;;;;-58
2021/09/14 16:22:09;;;;;;;5.33;3.01;;;;;;;21.47;72.92;100200.22;;;;-55
2021/09/14 16:25:09;;;;;;;5.65;2.89;;;;;;;21.48;72.93;100206.34;;;;-61
2021/09/14 16:28:09;;;;;;;4.99;2.94;;;;;;;21.49;72.92;100207.63;;;;-60
2021/09/14 16:31:09;;;;;;;4.75;2.90;;;;;;;21.49;72.88;100201.25;;;;-64
2021/09/14 16:34:09;;;;;;;5.61;2.75;;;;;;;21.51;72.92;100200.29;;;;-57
2021/09/14 16:37:09;;;;;;;5.36;3.11;;;;;;;21.51;72.93;100201.27;;;;-58
2021/09/14 16:40:09;;;;;;;5.68;2.71;;;;;;;21.50;72.98;100205.41;;;;-56
2021/09/14 16:43:09;;;;;;;4.63;2.88;;;;;;;21.51;72.89;100197.19;;;;-52
2021/09/14 16:46:09;;;;;;;4.36;2.91;;;;;;;21.51;72.97;100200.85;;;;-54
2021/09/14 16:49:09;;;;;;;4.05;2.91;;;;;;;21.51;72.94;100201.66;;;;-53
2021/09/14 16:52:09;;;;;;;3.51;2.78;;;;;;;21.50;72.99;100196.14;;;;-63
2021/09/14 16:55:11;;;;;;;3.47;2.78;;;;;;;21.51;72.99;100194.41;;;;-64
2021/09/14 16:58:09;;;;;;;4.05;2.84;;;;;;;21.50;72.92;100191.73;;;;-64
2021/09/14 17:01:09;;;;;;;3.90;2.93;;;;;;;21.50;72.99;100183.34;;;;-64
2021/09/14 17:04:09;;;;;;;4.23;2.87;;;;;;;21.49;72.96;100183.17;;;;-53
2021/09/14 17:07:09;;;;;;;4.58;2.68;;;;;;;21.49;72.94;100183.42;;;;-51
2021/09/14 17:10:09;;;;;;;4.58;2.97;;;;;;;21.48;72.87;100182.75;;;;-56
2021/09/14 17:13:09;;;;;;;4.61;2.92;;;;;;;21.46;72.88;100181.72;;;;-64
2021/09/14 17:16:09;;;;;;;2.91;2.69;;;;;;;21.47;72.82;100180.25;;;;-64
2021/09/14 17:23:09;;;;;;;6.80;3.02;;;;;;;21.46;72.78;100177.49;;;;-51
2021/09/14 17:26:09;;;;;;;8.42;3.00;;;;;;;21.48;72.96;100175.09;;;;-48
2021/09/14 17:32:09;;;;;;;7.85;3.02;;;;;;;21.52;73.05;100174.84;;;;-57
2021/09/14 17:35:09;;;;;;;6.75;2.91;;;;;;;21.54;72.82;100176.28;;;;-58
2021/09/14 17:38:09;;;;;;;8.54;2.91;;;;;;;21.53;72.96;100170.59;;;;-52
2021/09/14 17:41:09;;;;;;;8.09;2.85;;;;;;;21.53;72.96;100162.67;;;;-51